Time;durP1;ratioP1;P1;durP2;ratioP2;P2;SDS_P1;SDS_P2;PMS_P1;PMS_P2;Temp;Humidity;BMP_temperature;BMP_pressure;BME280_temperature;BME280_humidity;BME280_pressure;Samples;Min_cycle;Max_cycle;Signal;HPM_P1;HPM_P2
2023/10/24 00:00:05;;;;;;;3.60;3.30;;;;;;;5.41;100.00;101027.56;4953107;29;20187;-45
2023/10/24 00:02:38;;;;;;;3.50;3.20;;;;;;;5.41;100.00;101026.69;4953323;29;20301;-45
2023/10/24 00:05:04;;;;;;;3.83;3.53;;;;;;;5.46;100.00;101012.41;4953093;29;20202;-45
2023/10/24 00:07:29;;;;;;;6.60;3.80;;;;;;;5.36;100.00;101018.78;4953502;29;20265;-44
2023/10/24 00:09:55;;;;;;;3.50;3.20;;;;;;;5.36;100.00;101022.31;4953185;29;20189;-43
2023/10/24 00:12:20;;;;;;;3.60;3.30;;;;;;;5.46;100.00;101022.16;4952906;29;20558;-44
2023/10/24 00:14:46;;;;;;;4.20;3.80;;;;;;;5.52;100.00;101004.34;4952859;29;20245;-44
2023/10/24 00:17:11;;;;;;;3.67;3.20;;;;;;;5.56;100.00;100998.09;4953021;29;20310;-47
2023/10/24 00:19:37;;;;;;;4.72;3.28;;;;;;;5.61;100.00;100994.50;4952785;29;20186;-45
2023/10/24 00:22:02;;;;;;;3.65;2.95;;;;;;;5.64;100.00;100992.69;4935968;29;20208;-45
2023/10/24 00:24:28;;;;;;;3.20;2.97;;;;;;;5.67;100.00;100981.13;4952624;29;20195;-46
2023/10/24 00:26:55;;;;;;;4.28;3.05;;;;;;;5.66;100.00;100966.06;4952528;29;20804;-42
2023/10/24 00:29:21;;;;;;;3.60;3.25;;;;;;;5.62;100.00;100970.56;4952498;29;20228;-46
2023/10/24 00:31:46;;;;;;;4.03;3.63;;;;;;;5.58;100.00;100982.13;4952634;29;20533;-45
2023/10/24 00:34:12;;;;;;;4.07;3.22;;;;;;;5.73;100.00;100973.06;4952817;29;20201;-43
2023/10/24 00:36:40;;;;;;;5.13;3.10;;;;;;;5.77;100.00;100983.59;4952802;29;20195;-45
2023/10/24 00:39:06;;;;;;;4.45;3.03;;;;;;;5.88;100.00;100967.47;4952613;29;20183;-47
2023/10/24 00:41:31;;;;;;;3.30;2.95;;;;;;;5.90;100.00;100972.75;4952761;29;20266;-46
2023/10/24 00:43:57;;;;;;;7.45;3.17;;;;;;;5.92;100.00;100968.28;4966668;28;20636;-47
2023/10/24 00:46:23;;;;;;;3.92;3.38;;;;;;;5.92;100.00;100969.16;4971799;28;20189;-45
2023/10/24 00:48:49;;;;;;;6.85;3.72;;;;;;;5.91;100.00;100966.56;4971787;28;20546;-45
2023/10/24 00:51:15;;;;;;;4.15;3.10;;;;;;;5.95;100.00;100966.50;4971682;28;20192;-45
2023/10/24 00:53:41;;;;;;;3.70;3.40;;;;;;;5.93;100.00;100954.97;4971785;28;20358;-45
2023/10/24 00:56:08;;;;;;;3.17;2.88;;;;;;;5.95;100.00;100952.34;4971587;28;20198;-44
2023/10/24 00:58:37;;;;;;;4.53;3.40;;;;;;;5.92;100.00;100947.88;4971620;28;20559;-44
2023/10/24 01:01:07;;;;;;;3.45;3.08;;;;;;;5.93;100.00;100951.44;4971605;28;20579;-46
2023/10/24 01:03:33;;;;;;;3.05;2.83;;;;;;;5.96;100.00;100943.44;4953512;28;20193;-45
2023/10/24 01:06:00;;;;;;;3.20;2.90;;;;;;;5.99;100.00;100954.00;4971685;28;20231;-46
2023/10/24 01:08:26;;;;;;;3.35;3.05;;;;;;;5.87;100.00;100947.09;4971691;28;20213;-48
2023/10/24 01:10:51;;;;;;;5.82;3.70;;;;;;;5.83;100.00;100966.66;4971400;28;20220;-46
2023/10/24 01:13:17;;;;;;;5.85;3.90;;;;;;;5.96;100.00;100959.41;4971538;28;20719;-45
2023/10/24 01:15:42;;;;;;;9.32;3.63;;;;;;;6.01;100.00;100954.84;4971313;28;20198;-43
2023/10/24 01:18:08;;;;;;;4.22;2.83;;;;;;;6.05;100.00;100945.94;4954437;28;20193;-46
2023/10/24 01:20:33;;;;;;;8.70;4.05;;;;;;;6.03;100.00;100939.75;4954240;28;20166;-44
2023/10/24 01:22:59;;;;;;;5.45;3.53;;;;;;;6.07;100.00;100940.59;4971366;28;20162;-45
2023/10/24 01:25:26;;;;;;;5.82;3.63;;;;;;;6.14;100.00;100927.16;4954005;28;20245;-45
2023/10/24 01:27:57;;;;;;;6.38;3.80;;;;;;;6.18;100.00;100918.19;4971737;28;20234;-46
2023/10/24 01:30:23;;;;;;;5.65;4.28;;;;;;;6.32;100.00;100922.38;4970907;28;20182;-45
2023/10/24 01:32:49;;;;;;;9.60;4.32;;;;;;;6.37;100.00;100934.69;4971525;28;20240;-44
2023/10/24 01:35:14;;;;;;;7.25;4.38;;;;;;;6.55;100.00;100930.78;4971279;28;20202;-44
2023/10/24 01:37:40;;;;;;;7.00;4.65;;;;;;;6.63;100.00;100929.78;4971420;28;20170;-45
2023/10/24 01:40:06;;;;;;;4.82;4.18;;;;;;;6.68;100.00;100922.56;4971230;28;20693;-45
2023/10/24 01:42:32;;;;;;;7.25;4.00;;;;;;;6.74;100.00;100927.78;4971345;28;20240;-46
2023/10/24 01:44:57;;;;;;;6.70;4.80;;;;;;;6.75;100.00;100925.06;4970990;28;20202;-44
2023/10/24 01:47:23;;;;;;;6.07;4.70;;;;;;;6.81;100.00;100916.06;4971114;28;20274;-43
2023/10/24 01:49:49;;;;;;;8.85;4.13;;;;;;;6.81;100.00;100911.63;4947598;29;20689;-44
2023/10/24 01:52:14;;;;;;;9.00;4.93;;;;;;;6.86;100.00;100906.19;4951883;29;20618;-47
2023/10/24 01:54:40;;;;;;;10.18;5.05;;;;;;;6.89;100.00;100907.94;4951938;29;20574;-45
2023/10/24 01:57:05;;;;;;;5.75;3.78;;;;;;;6.91;100.00;100885.69;4951963;29;20229;-43
2023/10/24 01:59:31;;;;;;;8.77;4.68;;;;;;;6.91;100.00;100884.78;4934602;29;20265;-46
2023/10/24 02:01:56;;;;;;;14.45;4.72;;;;;;;7.08;100.00;100889.72;4934556;29;20331;-43
2023/10/24 02:04:22;;;;;;;6.95;5.10;;;;;;;7.17;100.00;100881.53;4934624;29;20229;-45
2023/10/24 02:06:47;;;;;;;8.73;4.75;;;;;;;7.18;100.00;100878.84;4951729;29;20214;-46
2023/10/24 02:09:13;;;;;;;7.18;4.20;;;;;;;7.27;100.00;100872.41;4934561;29;20183;-44
2023/10/24 02:11:38;;;;;;;8.98;4.63;;;;;;;7.35;100.00;100858.91;4934432;29;20175;-44
2023/10/24 02:14:05;;;;;;;9.45;4.85;;;;;;;7.39;100.00;100849.91;4951629;28;20185;-44
2023/10/24 02:16:32;;;;;;;6.75;4.95;;;;;;;7.38;100.00;100843.69;4955218;29;20652;-44
2023/10/24 02:18:57;;;;;;;11.10;5.07;;;;;;;7.38;100.00;100853.50;4937687;29;20191;-44
2023/10/24 02:21:23;;;;;;;12.60;5.20;;;;;;;7.46;100.00;100840.00;4937663;29;20183;-43
2023/10/24 02:23:49;;;;;;;7.80;5.70;;;;;;;7.47;100.00;100839.94;4955118;29;20174;-43
2023/10/24 02:26:15;;;;;;;9.57;4.63;;;;;;;7.46;100.00;100840.88;4953741;28;20619;-45
2023/10/24 02:28:41;;;;;;;7.57;4.80;;;;;;;7.51;100.00;100844.28;4974297;28;20306;-46
2023/10/24 02:31:07;;;;;;;9.75;5.00;;;;;;;7.54;100.00;100833.56;4974177;28;20178;-49
2023/10/24 02:33:32;;;;;;;8.05;4.40;;;;;;;7.51;100.00;100827.41;4974473;28;20197;-45
2023/10/24 02:36:11;;;;;;;9.45;4.80;;;;;;;7.54;100.00;100833.56;4959484;28;20206;-47
2023/10/24 02:38:37;;;;;;;6.95;4.40;;;;;;;7.57;100.00;100836.13;4954879;29;20637;-45
2023/10/24 02:41:04;;;;;;;5.70;4.25;;;;;;;7.62;100.00;100833.34;4962701;28;20189;-44
2023/10/24 02:43:29;;;;;;;5.82;3.78;;;;;;;7.65;100.00;100830.56;4956421;28;20170;-45
2023/10/24 02:45:57;;;;;;;8.45;4.00;;;;;;;7.66;100.00;100826.16;4956269;28;20206;-42
2023/10/24 02:48:22;;;;;;;10.35;3.75;;;;;;;7.71;100.00;100810.88;4974039;28;20182;-46
2023/10/24 02:50:53;;;;;;;8.02;3.55;;;;;;;7.72;100.00;100805.53;4973887;28;20175;-44
2023/10/24 02:53:18;;;;;;;6.18;3.30;;;;;;;7.80;100.00;100795.50;4971690;28;20190;-47
2023/10/24 02:55:44;;;;;;;3.80;3.10;;;;;;;7.89;100.00;100791.69;4937221;29;20221;-44
2023/10/24 02:58:09;;;;;;;5.75;3.15;;;;;;;7.88;100.00;100803.31;4954400;29;20184;-45
2023/10/24 03:00:35;;;;;;;3.50;3.20;;;;;;;7.88;100.00;100792.63;4937145;29;20189;-45
2023/10/24 03:03:00;;;;;;;5.32;3.17;;;;;;;7.93;100.00;100790.69;4954272;29;20242;-45
2023/10/24 03:05:26;;;;;;;5.53;3.17;;;;;;;8.01;100.00;100785.16;4939775;28;20220;-44
2023/10/24 03:07:52;;;;;;;6.90;3.80;;;;;;;8.08;100.00;100783.19;4973456;28;20540;-46
2023/10/24 03:10:18;;;;;;;6.45;3.00;;;;;;;8.01;100.00;100778.03;4973527;28;20178;-43
2023/10/24 03:12:43;;;;;;;4.15;3.17;;;;;;;8.16;100.00;100770.50;4955865;28;20270;-44
2023/10/24 03:15:09;;;;;;;4.45;2.90;;;;;;;8.14;100.00;100767.00;4955934;28;20252;-46
2023/10/24 03:17:35;;;;;;;6.47;3.55;;;;;;;8.16;100.00;100755.38;4956064;28;20553;-46
2023/10/24 03:20:02;;;;;;;5.43;2.90;;;;;;;8.20;100.00;100746.34;4973180;28;20185;-44
2023/10/24 03:22:28;;;;;;;4.18;2.97;;;;;;;8.21;100.00;100739.22;4973305;28;20260;-45
2023/10/24 03:24:53;;;;;;;5.95;2.55;;;;;;;8.30;100.00;100730.06;4973009;28;20194;-45
2023/10/24 03:27:19;;;;;;;5.63;2.92;;;;;;;8.37;100.00;100719.13;4972505;28;20198;-44
2023/10/24 03:29:45;;;;;;;8.57;3.08;;;;;;;8.36;100.00;100709.38;4972878;28;20344;-45
2023/10/24 03:32:11;;;;;;;3.55;2.63;;;;;;;8.32;100.00;100718.41;4973307;28;20555;-44
2023/10/24 03:34:36;;;;;;;4.43;2.80;;;;;;;8.31;100.00;100706.00;4955537;28;20233;-44
2023/10/24 03:37:02;;;;;;;6.65;2.67;;;;;;;8.25;100.00;100691.03;4940714;29;20198;-46
2023/10/24 03:39:28;;;;;;;6.45;2.97;;;;;;;8.29;100.00;100705.16;4956727;28;20189;-45
2023/10/24 03:41:54;;;;;;;5.55;3.10;;;;;;;8.32;100.00;100698.84;4958230;28;20199;-45
2023/10/24 03:44:20;;;;;;;5.00;2.88;;;;;;;8.44;100.00;100707.41;4953720;29;20207;-44
2023/10/24 03:46:45;;;;;;;8.05;3.58;;;;;;;8.42;100.00;100700.38;4935967;29;20214;-47
2023/10/24 03:49:11;;;;;;;6.15;3.20;;;;;;;8.43;100.00;100694.09;4953474;29;20591;-44
2023/10/24 03:51:36;;;;;;;8.77;3.20;;;;;;;8.53;100.00;100687.53;4965729;28;20603;-43
2023/10/24 03:54:03;;;;;;;8.70;3.53;;;;;;;8.59;100.00;100683.78;4956771;28;20265;-45
2023/10/24 03:56:29;;;;;;;5.20;3.38;;;;;;;8.62;100.00;100675.69;4953370;29;20262;-46
2023/10/24 03:58:55;;;;;;;6.03;3.22;;;;;;;8.62;100.00;100668.53;4953066;29;20712;-45
2023/10/24 04:01:20;;;;;;;6.88;4.00;;;;;;;8.69;100.00;100679.91;4952901;29;20182;-46
2023/10/24 04:03:46;;;;;;;6.38;3.63;;;;;;;8.71;100.00;100655.81;4953054;29;20186;-45
2023/10/24 04:06:11;;;;;;;5.65;3.83;;;;;;;8.67;100.00;100655.03;4952908;29;20617;-44
2023/10/24 04:08:38;;;;;;;3.88;3.50;;;;;;;8.68;100.00;100662.13;4953235;29;20261;-44
2023/10/24 04:11:04;;;;;;;4.80;3.55;;;;;;;8.75;100.00;100662.81;4952874;29;20209;-43
2023/10/24 04:13:29;;;;;;;6.80;3.95;;;;;;;8.79;100.00;100661.75;4952800;29;20171;-45
2023/10/24 04:15:58;;;;;;;4.38;3.90;;;;;;;8.82;100.00;100650.97;4952957;29;20700;-47
2023/10/24 04:18:26;;;;;;;11.98;3.78;;;;;;;8.81;100.00;100643.88;4970378;28;20539;-46
2023/10/24 04:20:52;;;;;;;7.95;4.30;;;;;;;8.81;100.00;100631.41;4971912;28;20193;-44
2023/10/24 04:23:17;;;;;;;5.43;4.00;;;;;;;8.80;100.00;100637.66;4971946;28;20189;-44
2023/10/24 04:25:43;;;;;;;7.70;4.32;;;;;;;8.84;100.00;100630.44;4971914;28;20208;-45
2023/10/24 04:28:08;;;;;;;11.05;4.22;;;;;;;8.86;100.00;100626.78;4972112;28;20276;-45
2023/10/24 04:30:34;;;;;;;9.18;4.28;;;;;;;8.99;100.00;100624.56;4971936;28;20635;-44
2023/10/24 04:32:59;;;;;;;7.03;5.00;;;;;;;8.95;100.00;100628.25;4971914;28;20288;-44
2023/10/24 04:35:25;;;;;;;6.85;4.47;;;;;;;8.95;100.00;100620.25;4971884;28;20198;-43
2023/10/24 04:37:50;;;;;;;7.22;4.90;;;;;;;8.97;100.00;100617.53;4971317;28;20843;-43
2023/10/24 04:40:16;;;;;;;11.18;5.10;;;;;;;9.00;100.00;100604.03;4971539;28;20229;-44
2023/10/24 04:42:41;;;;;;;8.88;4.22;;;;;;;9.02;100.00;100595.03;4959107;28;20509;-46
2023/10/24 04:45:08;;;;;;;6.63;4.45;;;;;;;9.04;100.00;100586.97;4952484;28;20199;-44
2023/10/24 04:47:33;;;;;;;7.88;5.30;;;;;;;9.04;100.00;100589.66;4967784;28;20206;-46
2023/10/24 04:49:59;;;;;;;11.38;5.22;;;;;;;9.06;100.00;100577.97;4958433;28;20198;-44
2023/10/24 04:52:24;;;;;;;8.75;4.57;;;;;;;9.10;100.00;100577.88;4970507;28;20193;-43
2023/10/24 04:54:50;;;;;;;9.85;4.63;;;;;;;9.05;100.00;100581.59;4971477;28;20230;-44
2023/10/24 04:57:15;;;;;;;8.57;4.43;;;;;;;9.13;100.00;100578.63;4971432;28;20261;-43
2023/10/24 04:59:40;;;;;;;5.55;4.25;;;;;;;9.12;100.00;100576.00;4971495;28;20166;-43
2023/10/24 05:02:06;;;;;;;6.55;4.63;;;;;;;9.11;100.00;100567.13;4971638;28;20182;-44
2023/10/24 05:04:31;;;;;;;8.10;4.80;;;;;;;9.14;100.00;100568.78;4960111;28;20576;-44
2023/10/24 05:06:57;;;;;;;11.95;4.57;;;;;;;9.17;100.00;100571.38;4952493;29;20348;-43
2023/10/24 05:09:22;;;;;;;10.15;4.88;;;;;;;9.21;100.00;100565.00;4952178;29;20188;-44
2023/10/24 05:11:48;;;;;;;5.22;4.43;;;;;;;9.24;100.00;100563.06;4957669;28;20264;-44
2023/10/24 05:14:14;;;;;;;5.28;4.10;;;;;;;9.15;100.00;100552.72;4954088;28;20166;-45
2023/10/24 05:16:39;;;;;;;9.35;5.47;;;;;;;9.22;100.00;100548.88;4971549;28;20684;-44
2023/10/24 05:19:05;;;;;;;7.10;5.43;;;;;;;9.16;100.00;100558.94;4971769;28;20210;-44
2023/10/24 05:21:32;;;;;;;5.93;5.05;;;;;;;9.24;100.00;100568.41;4971729;28;20185;-41
2023/10/24 05:23:58;;;;;;;9.18;5.70;;;;;;;9.26;100.00;100563.00;4971492;28;20185;-43
2023/10/24 05:26:24;;;;;;;10.90;5.85;;;;;;;9.20;100.00;100566.78;4971400;28;20337;-44
2023/10/24 05:28:50;;;;;;;7.20;5.10;;;;;;;9.26;100.00;100555.00;4957848;28;20562;-44
2023/10/24 05:31:15;;;;;;;8.35;5.78;;;;;;;9.25;100.00;100559.47;4968530;28;20189;-41
2023/10/24 05:33:41;;;;;;;7.60;6.10;;;;;;;9.25;100.00;100545.25;4971407;28;20293;-45
2023/10/24 05:36:06;;;;;;;8.68;6.13;;;;;;;9.24;100.00;100536.31;4971211;28;20289;-44
2023/10/24 05:38:35;;;;;;;7.43;5.95;;;;;;;9.24;100.00;100535.47;4971176;28;20542;-45
2023/10/24 05:41:01;;;;;;;8.50;6.45;;;;;;;9.23;100.00;100526.56;4971279;28;20656;-42
2023/10/24 05:43:26;;;;;;;13.77;7.25;;;;;;;9.18;100.00;100517.88;4960502;28;20282;-44
2023/10/24 05:45:52;;;;;;;13.80;7.32;;;;;;;9.28;100.00;100521.06;4957841;28;20260;-44
2023/10/24 05:48:18;;;;;;;11.27;8.95;;;;;;;9.30;100.00;100529.88;4971057;28;20231;-42
2023/10/24 05:50:44;;;;;;;13.10;8.25;;;;;;;9.26;100.00;100525.59;4973565;28;20213;-44
2023/10/24 05:53:09;;;;;;;11.45;8.77;;;;;;;9.29;100.00;100525.47;4974914;28;20198;-44
2023/10/24 05:55:35;;;;;;;13.98;8.27;;;;;;;9.33;100.00;100527.09;4975293;28;20329;-45
2023/10/24 05:58:00;;;;;;;14.63;8.57;;;;;;;9.32;100.00;100524.50;4957506;28;20166;-47
2023/10/24 06:00:26;;;;;;;12.98;8.85;;;;;;;9.25;100.00;100531.88;4956873;28;20353;-43
2023/10/24 06:02:51;;;;;;;12.32;8.98;;;;;;;9.24;100.00;100538.13;4955691;29;20190;-45
2023/10/24 06:05:17;;;;;;;16.10;9.98;;;;;;;9.28;100.00;100529.06;4938951;28;20320;-47
2023/10/24 06:07:42;;;;;;;12.55;9.48;;;;;;;9.29;100.00;100538.81;4974655;28;20703;-43
2023/10/24 06:10:08;;;;;;;14.40;10.43;;;;;;;9.34;100.00;100542.22;4974875;28;20194;-45
2023/10/24 06:12:34;;;;;;;14.45;10.63;;;;;;;9.36;100.00;100545.72;4975114;28;20178;-46
2023/10/24 06:14:59;;;;;;;18.00;10.40;;;;;;;9.35;100.00;100535.94;4974956;28;20213;-43
2023/10/24 06:17:24;;;;;;;16.27;10.10;;;;;;;9.34;100.00;100539.53;4975102;28;20318;-46
2023/10/24 06:19:51;;;;;;;14.43;9.82;;;;;;;9.35;100.00;100535.06;4974502;28;20236;-45
2023/10/24 06:22:17;;;;;;;11.32;9.98;;;;;;;9.41;100.00;100541.03;4974512;28;20240;-44
2023/10/24 06:24:43;;;;;;;13.60;10.48;;;;;;;9.37;100.00;100547.44;4974559;28;20221;-44
2023/10/24 06:27:13;;;;;;;16.88;10.65;;;;;;;9.32;100.00;100545.88;4974342;28;20208;-44
2023/10/24 06:29:39;;;;;;;15.57;10.23;;;;;;;9.30;100.00;100543.25;4974398;28;20198;-48
2023/10/24 06:32:05;;;;;;;15.05;10.52;;;;;;;9.31;100.00;100561.03;4973622;28;20182;-44
2023/10/24 06:34:31;;;;;;;12.85;10.27;;;;;;;9.26;100.00;100547.84;4973542;28;20202;-43
2023/10/24 06:36:57;;;;;;;14.45;10.93;;;;;;;9.29;100.00;100538.81;4973269;28;20181;-44
2023/10/24 06:39:23;;;;;;;13.25;10.18;;;;;;;9.26;100.00;100536.28;4973819;28;20249;-44
2023/10/24 06:41:48;;;;;;;19.77;11.00;;;;;;;9.22;100.00;100523.94;4973395;28;20280;-43
2023/10/24 06:44:21;;;;;;;15.82;10.98;;;;;;;9.26;100.00;100525.59;4956015;28;20688;-44
2023/10/24 06:46:47;;;;;;;20.80;11.93;;;;;;;9.22;100.00;100522.16;4972841;28;20206;-45
2023/10/24 06:49:12;;;;;;;17.13;11.90;;;;;;;9.19;100.00;100516.94;4953688;28;20213;-44
2023/10/24 06:51:38;;;;;;;21.73;12.40;;;;;;;9.17;100.00;100520.59;4956843;28;20323;-44
2023/10/24 06:54:03;;;;;;;18.23;11.48;;;;;;;9.19;100.00;100534.78;4966456;28;20249;-44
2023/10/24 06:56:29;;;;;;;18.05;12.43;;;;;;;9.16;100.00;100521.50;4953818;29;20258;-47
2023/10/24 06:58:54;;;;;;;18.45;12.70;;;;;;;9.19;100.00;100534.78;4953561;29;20436;-45
2023/10/24 07:01:20;;;;;;;14.45;10.70;;;;;;;9.26;100.00;100537.13;4952591;28;20187;-45
2023/10/24 07:03:46;;;;;;;21.90;11.98;;;;;;;9.20;100.00;100539.19;4953223;29;20193;-44
2023/10/24 07:06:13;;;;;;;16.92;11.43;;;;;;;9.16;100.00;100533.09;4934176;29;20202;-43
2023/10/24 07:08:40;;;;;;;23.08;12.15;;;;;;;9.20;100.00;100526.66;4936618;29;20333;-43
2023/10/24 07:11:05;;;;;;;15.52;11.48;;;;;;;9.21;100.00;100533.78;4953199;28;20682;-44
2023/10/24 07:13:31;;;;;;;16.80;10.23;;;;;;;9.17;100.00;100531.28;4952712;29;20304;-44
2023/10/24 07:15:56;;;;;;;15.23;10.63;;;;;;;9.18;100.00;100533.91;4962297;28;20674;-45
2023/10/24 07:18:22;;;;;;;19.20;11.13;;;;;;;9.23;100.00;100531.06;4952918;29;20213;-45
2023/10/24 07:20:47;;;;;;;16.58;11.02;;;;;;;9.17;100.00;100521.47;4952886;29;20179;-45
2023/10/24 07:23:12;;;;;;;19.25;11.55;;;;;;;9.18;100.00;100520.53;4952757;29;20246;-43
2023/10/24 07:25:38;;;;;;;19.80;11.63;;;;;;;9.14;100.00;100510.91;4953274;28;20209;-44
2023/10/24 07:28:05;;;;;;;17.35;11.55;;;;;;;9.13;100.00;100487.75;4971993;28;20209;-44
2023/10/24 07:30:31;;;;;;;20.77;12.23;;;;;;;9.18;100.00;100479.56;4961952;28;20194;-46
2023/10/24 07:32:57;;;;;;;18.20;12.32;;;;;;;9.16;100.00;100492.09;4948938;29;20205;-44
2023/10/24 07:35:23;;;;;;;19.38;12.63;;;;;;;9.14;100.00;100489.50;4953726;28;20246;-46
2023/10/24 07:37:49;;;;;;;21.25;13.05;;;;;;;9.13;100.00;100489.56;4967750;28;20175;-44
2023/10/24 07:40:15;;;;;;;18.38;12.57;;;;;;;9.11;100.00;100473.56;4953138;29;20190;-45
2023/10/24 07:42:41;;;;;;;20.10;12.57;;;;;;;9.15;100.00;100474.34;4952449;29;20585;-44
2023/10/24 07:45:07;;;;;;;23.75;13.00;;;;;;;9.13;100.00;100474.38;4953271;29;20215;-44
2023/10/24 07:47:32;;;;;;;18.60;12.60;;;;;;;9.19;100.00;100476.84;4963567;28;20213;-44
2023/10/24 07:49:59;;;;;;;20.02;13.45;;;;;;;9.17;100.00;100461.78;4973100;28;20272;-45
2023/10/24 07:52:24;;;;;;;20.52;12.30;;;;;;;9.20;100.00;100454.50;4972496;28;20186;-43
2023/10/24 07:54:50;;;;;;;21.77;12.60;;;;;;;9.18;100.00;100464.41;4960012;28;20685;-44
2023/10/24 07:57:15;;;;;;;19.85;12.13;;;;;;;9.17;100.00;100464.47;4954039;28;20183;-44
2023/10/24 07:59:41;;;;;;;21.55;12.13;;;;;;;9.23;100.00;100453.53;4972593;28;20671;-44
2023/10/24 08:02:07;;;;;;;18.25;11.95;;;;;;;9.25;100.00;100460.56;4972260;28;20206;-45
2023/10/24 08:04:34;;;;;;;21.10;13.70;;;;;;;9.25;100.00;100465.03;4972486;28;20297;-44
2023/10/24 08:07:00;;;;;;;31.15;14.18;;;;;;;9.28;100.00;100468.44;4972065;28;20248;-44
2023/10/24 08:09:25;;;;;;;20.52;12.57;;;;;;;9.25;100.00;100465.91;4970926;28;20587;-42
2023/10/24 08:11:51;;;;;;;19.98;13.07;;;;;;;9.26;100.00;100464.09;4963993;28;20225;-46
2023/10/24 08:14:16;;;;;;;21.25;13.50;;;;;;;9.33;100.00;100456.72;4951371;29;20281;-46
2023/10/24 08:16:42;;;;;;;18.70;12.23;;;;;;;9.39;100.00;100473.38;4951456;29;20276;-43
2023/10/24 08:19:07;;;;;;;23.20;13.10;;;;;;;9.38;100.00;100478.78;4951256;29;20185;-45
2023/10/24 08:21:32;;;;;;;22.77;13.13;;;;;;;9.36;100.00;100473.50;4969991;28;20225;-46
2023/10/24 08:23:58;;;;;;;21.05;12.48;;;;;;;9.38;100.00;100477.00;4957279;28;20190;-45
2023/10/24 08:26:24;;;;;;;20.55;13.30;;;;;;;9.40;100.00;100484.94;4951249;29;20207;-42
2023/10/24 08:28:50;;;;;;;20.38;12.73;;;;;;;9.42;100.00;100478.63;4951067;29;20316;-45
2023/10/24 08:31:15;;;;;;;26.55;12.73;;;;;;;9.43;100.00;100477.69;4951169;29;20182;-45
2023/10/24 08:33:41;;;;;;;17.60;12.63;;;;;;;9.48;100.00;100470.34;4961745;28;20186;-43
2023/10/24 08:36:06;;;;;;;16.63;12.20;;;;;;;9.47;100.00;100465.06;4970149;28;20205;-47
2023/10/24 08:38:32;;;;;;;17.02;11.85;;;;;;;9.44;100.00;100466.03;4970074;28;20265;-42
2023/10/24 08:40:57;;;;;;;20.52;12.35;;;;;;;9.47;100.00;100476.63;4970275;28;20742;-43
2023/10/24 08:43:23;;;;;;;17.17;11.45;;;;;;;9.49;100.00;100481.94;4953139;28;20204;-46
2023/10/24 08:45:50;;;;;;;23.77;12.15;;;;;;;9.54;100.00;100471.06;4951251;29;20569;-47
2023/10/24 08:48:16;;;;;;;19.15;12.18;;;;;;;9.57;100.00;100468.25;4959997;28;20300;-42
2023/10/24 08:50:42;;;;;;;17.65;11.55;;;;;;;9.59;100.00;100451.19;4971807;28;20286;-44
2023/10/24 08:53:10;;;;;;;17.25;11.32;;;;;;;9.58;100.00;100448.59;4971625;28;20186;-44
2023/10/24 08:55:38;;;;;;;19.52;12.70;;;;;;;9.56;100.00;100432.63;4969543;28;20201;-43
2023/10/24 08:58:06;;;;;;;20.20;12.05;;;;;;;9.58;100.00;100430.75;4952278;29;20201;-47
2023/10/24 09:00:32;;;;;;;20.77;12.00;;;;;;;9.56;100.00;100434.41;4934819;29;20201;-44
2023/10/24 09:02:57;;;;;;;18.98;12.80;;;;;;;9.57;100.00;100439.69;4952193;29;20167;-45
2023/10/24 09:05:27;;;;;;;19.60;12.52;;;;;;;9.61;100.00;100432.41;4934655;29;20229;-41
2023/10/24 09:07:53;;;;;;;19.98;12.75;;;;;;;9.57;100.00;100431.66;4952260;29;20318;-44
2023/10/24 09:10:20;;;;;;;17.73;11.65;;;;;;;9.64;100.00;100418.91;4952302;29;20257;-45
2023/10/24 09:12:45;;;;;;;21.42;13.13;;;;;;;9.68;100.00;100412.50;4934433;29;20179;-42
2023/10/24 09:15:11;;;;;;;19.77;12.15;;;;;;;9.64;100.00;100413.56;4951874;29;20198;-45
2023/10/24 09:17:37;;;;;;;19.80;12.30;;;;;;;9.68;100.00;100412.50;4952360;29;20233;-42
2023/10/24 09:20:05;;;;;;;18.38;12.82;;;;;;;9.66;100.00;100417.03;4952160;29;20175;-44
2023/10/24 09:22:31;;;;;;;17.10;12.70;;;;;;;9.63;100.00;100419.84;4968862;28;20185;-43
2023/10/24 09:24:58;;;;;;;21.85;12.85;;;;;;;9.62;100.00;100420.78;4955531;28;20209;-45
2023/10/24 09:27:24;;;;;;;19.55;13.05;;;;;;;9.63;100.00;100425.22;4957743;28;20194;-45
2023/10/24 09:29:51;;;;;;;19.80;12.40;;;;;;;9.64;100.00;100421.59;4975274;28;20181;-43
2023/10/24 09:32:17;;;;;;;18.83;13.60;;;;;;;9.61;100.00;100409.22;4975048;28;20193;-46
2023/10/24 09:34:46;;;;;;;17.52;12.75;;;;;;;9.63;100.00;100401.13;4974998;28;20672;-44
2023/10/24 09:37:13;;;;;;;18.60;12.68;;;;;;;9.65;100.00;100407.28;4958005;28;20181;-44
2023/10/24 09:40:00;;;;;;;17.25;13.25;;;;;;;9.68;100.00;100400.00;4975246;28;20181;-43
2023/10/24 09:42:31;;;;;;;16.63;12.10;;;;;;;9.74;100.00;100390.84;4958969;28;20656;-42
2023/10/24 09:45:00;;;;;;;15.40;12.88;;;;;;;9.71;100.00;100396.34;4955625;29;20265;-43
2023/10/24 09:47:26;;;;;;;19.85;13.20;;;;;;;9.67;100.00;100398.28;4955810;29;20261;-46
2023/10/24 09:49:54;;;;;;;19.95;12.80;;;;;;;9.67;100.00;100390.25;4956227;29;20313;-43
2023/10/24 09:52:23;;;;;;;23.98;14.73;;;;;;;9.66;100.00;100398.31;4955432;29;20187;-45
2023/10/24 09:54:50;;;;;;;20.08;13.63;;;;;;;9.70;100.00;100391.91;4955730;29;20693;-45
2023/10/24 09:57:20;;;;;;;16.20;13.27;;;;;;;9.76;100.00;100394.34;4955477;29;20174;-44
2023/10/24 09:59:47;;;;;;;16.23;13.60;;;;;;;9.75;100.00;100394.41;4955415;29;20559;-44
2023/10/24 10:02:20;;;;;;;18.65;13.43;;;;;;;9.75;100.00;100394.41;4955308;29;20254;-45
2023/10/24 10:04:48;;;;;;;18.02;14.10;;;;;;;9.75;100.00;100395.28;4955535;29;20688;-46
2023/10/24 10:07:14;;;;;;;19.52;14.82;;;;;;;9.74;100.00;100396.19;4955353;29;20281;-44
2023/10/24 10:09:43;;;;;;;20.75;14.88;;;;;;;9.78;100.00;100384.44;4964758;28;20273;-43
2023/10/24 10:12:12;;;;;;;21.40;15.25;;;;;;;9.81;100.00;100378.94;4974657;28;20182;-43
2023/10/24 10:14:55;;;;;;;24.50;15.95;;;;;;;9.78;100.00;100378.22;4974198;28;20281;-46
2023/10/24 10:17:37;;;;;;;21.00;15.93;;;;;;;9.77;100.00;100374.66;4974284;28;20511;-44
2023/10/24 10:20:11;;;;;;;21.17;16.05;;;;;;;9.78;100.00;100384.44;4974421;28;20232;-43
2023/10/24 10:23:12;;;;;;;21.40;15.60;;;;;;;9.76;100.00;100380.97;4974161;28;20224;-43
2023/10/24 10:26:12;;;;;;;20.90;15.57;;;;;;;9.77;100.00;100381.81;4974392;28;20209;-45
2023/10/24 10:28:46;;;;;;;20.73;15.82;;;;;;;9.73;100.00;100389.13;4974123;28;20198;-44
2023/10/24 10:31:38;;;;;;;23.05;15.75;;;;;;;9.70;100.00;100395.44;4974249;28;20186;-41
2023/10/24 10:34:04;;;;;;;18.63;15.35;;;;;;;9.72;100.00;100389.19;4973964;28;20581;-43
2023/10/24 10:36:29;;;;;;;20.23;15.10;;;;;;;9.74;100.00;100380.16;4963235;28;20183;-44
2023/10/24 10:39:00;;;;;;;20.95;14.95;;;;;;;9.70;100.00;100384.75;4954578;29;20230;-44
2023/10/24 10:41:27;;;;;;;21.65;15.95;;;;;;;9.70;100.00;100381.22;4954433;29;20265;-45
2023/10/24 10:43:54;;;;;;;22.02;14.80;;;;;;;9.73;100.00;100372.19;4954426;29;20246;-43
2023/10/24 10:48:51;;;;;;;24.30;16.42;;;;;;;9.70;100.00;100360.69;4951864;28;20249;-45
2023/10/24 10:51:22;;;;;;;20.67;16.38;;;;;;;9.70;100.00;100354.47;4955376;28;20308;-44
2023/10/24 10:54:27;;;;;;;29.70;16.50;;;;;;;9.75;100.00;100352.47;4968486;28;20599;-48
2023/10/24 10:56:57;;;;;;;19.88;16.20;;;;;;;9.74;100.00;100355.22;4953065;29;20198;-45
2023/10/24 10:59:53;;;;;;;19.30;15.10;;;;;;;9.77;100.00;100347.03;4954050;29;20277;-45
2023/10/24 11:02:23;;;;;;;19.02;15.45;;;;;;;9.74;100.00;100342.69;4946952;29;20187;-45
2023/10/24 11:04:48;;;;;;;21.38;15.93;;;;;;;9.74;100.00;100340.03;4943166;29;20311;-42
2023/10/24 11:07:14;;;;;;;21.17;16.48;;;;;;;9.77;100.00;100341.69;4947482;28;20427;-42
2023/10/24 11:09:41;;;;;;;21.35;16.45;;;;;;;9.81;100.00;100362.03;4946058;28;20710;-43
2023/10/24 11:12:19;;;;;;;21.30;15.63;;;;;;;9.78;100.00;100349.66;4946105;28;20183;-43
2023/10/24 11:15:04;;;;;;;23.42;16.83;;;;;;;9.82;100.00;100350.41;4947096;28;20295;-41
2023/10/24 11:17:31;;;;;;;21.88;16.50;;;;;;;9.82;100.00;100340.56;4945611;28;20649;-42